createdAt,value
2019-05-23T00:01:05.381Z,27.30
2019-05-23T00:03:45.620Z,28.50
2019-05-23T00:06:30.701Z,28.87
2019-05-23T00:09:00.653Z,30.13
2019-05-23T00:11:42.168Z,24.47
2019-05-23T00:14:18.077Z,29.50
2019-05-23T00:16:48.090Z,28.67
2019-05-23T00:19:18.054Z,29.60
2019-05-23T00:21:49.668Z,28.80
2019-05-23T00:24:20.778Z,27.77
2019-05-23T00:26:51.114Z,25.53
2019-05-23T00:29:22.705Z,24.87
2019-05-23T00:32:09.950Z,26.87
2019-05-23T00:34:39.987Z,26.17
2019-05-23T00:37:12.816Z,27.23
2019-05-23T00:39:47.841Z,30.07
2019-05-23T00:42:19.407Z,25.90
2019-05-23T00:44:49.834Z,23.30
2019-05-23T00:47:20.021Z,22.27
2019-05-23T00:49:50.153Z,25.30
2019-05-23T00:52:23.573Z,32.77
2019-05-23T00:54:57.867Z,34.93
2019-05-23T00:57:28.258Z,32.17
2019-05-23T01:00:00.108Z,30.23
2019-05-23T01:02:28.497Z,28.20
2019-05-23T01:04:59.525Z,26.30
2019-05-23T01:07:31.092Z,24.23
2019-05-23T01:09:59.492Z,23.23
2019-05-23T01:12:32.294Z,24.07
2019-05-23T01:15:08.568Z,29.43
2019-05-23T01:17:36.947Z,22.50
2019-05-23T01:20:12.613Z,23.20
2019-05-23T01:22:42.630Z,23.33
2019-05-23T01:25:15.469Z,26.00
2019-05-23T01:27:47.049Z,33.13
2019-05-23T01:30:39.321Z,22.97
2019-05-23T01:33:10.270Z,26.80
2019-05-23T01:35:41.882Z,26.70
2019-05-23T01:38:13.759Z,31.17
2019-05-23T01:40:46.737Z,27.57
2019-05-23T01:43:18.235Z,25.53
2019-05-23T01:45:52.071Z,25.73
2019-05-23T01:48:26.102Z,23.13
2019-05-23T01:50:59.405Z,34.70
2019-05-23T01:53:31.246Z,34.57
2019-05-23T01:56:01.519Z,23.73
2019-05-23T01:58:46.326Z,29.73
2019-05-23T02:01:16.358Z,22.27
2019-05-23T02:03:49.148Z,23.60
2019-05-23T02:06:19.346Z,25.87
2019-05-23T02:08:55.286Z,23.73
2019-05-23T02:11:29.393Z,24.67
2019-05-23T02:14:00.190Z,44.67
2019-05-23T02:16:31.823Z,50.50
2019-05-23T02:19:08.584Z,49.63
2019-05-23T02:21:40.075Z,40.63
2019-05-23T02:24:11.973Z,39.83
2019-05-23T02:26:48.637Z,28.43
2019-05-23T02:29:18.645Z,30.40
2019-05-23T02:31:51.586Z,34.50
2019-05-23T02:34:23.151Z,35.53
2019-05-23T02:36:53.256Z,40.17
2019-05-23T02:39:34.479Z,35.73
2019-05-23T02:42:08.573Z,30.57
2019-05-23T02:44:39.298Z,28.03
2019-05-23T02:47:20.180Z,22.50
2019-05-23T02:49:51.735Z,27.27
2019-05-23T02:52:24.867Z,29.83
2019-05-23T02:54:58.118Z,34.00
2019-05-23T02:57:31.270Z,38.10
2019-05-23T03:00:04.381Z,31.03
2019-05-23T03:02:48.941Z,24.93
2019-05-23T03:05:25.204Z,29.33
2019-05-23T03:07:59.520Z,27.67
2019-05-23T03:10:32.623Z,28.77
2019-05-23T03:13:02.666Z,33.87
2019-05-23T03:15:34.896Z,29.87
2019-05-23T03:18:05.516Z,23.63
2019-05-23T03:20:35.692Z,26.73
2019-05-23T03:23:11.834Z,30.73
2019-05-23T03:25:44.251Z,32.73
2019-05-23T03:28:16.201Z,26.70
2019-05-23T03:30:52.370Z,23.83
2019-05-23T03:33:23.510Z,22.53
2019-05-23T03:36:03.887Z,29.70
2019-05-23T03:38:35.538Z,31.47
2019-05-23T03:41:05.545Z,31.43
2019-05-23T03:43:38.171Z,42.60
2019-05-23T03:46:21.683Z,35.27
2019-05-23T03:48:59.658Z,44.50
2019-05-23T03:51:31.449Z,42.80
2019-05-23T03:54:03.014Z,37.17
2019-05-23T03:56:33.049Z,40.43
2019-05-23T03:59:04.687Z,33.10
2019-05-23T04:01:47.983Z,33.60
2019-05-23T04:04:09.785Z,36.57
2019-05-23T04:06:42.496Z,36.80
2019-05-23T04:09:15.427Z,31.17
2019-05-23T04:12:04.797Z,33.00
2019-05-23T04:14:38.005Z,33.57
2019-05-23T04:17:08.350Z,34.00
2019-05-23T04:19:37.019Z,33.83
2019-05-23T04:22:07.302Z,37.00
2019-05-23T04:24:35.713Z,43.17
2019-05-23T04:27:05.163Z,37.47
2019-05-23T04:29:35.051Z,37.37
2019-05-23T04:32:08.950Z,36.17
2019-05-23T04:34:42.689Z,40.87
2019-05-23T04:37:12.626Z,42.20
2019-05-23T04:39:42.746Z,35.10
2019-05-23T04:42:14.766Z,35.73
2019-05-23T04:44:45.034Z,34.90
2019-05-23T04:47:16.649Z,35.37
2019-05-23T04:49:45.084Z,31.70
2019-05-23T04:52:18.433Z,32.87
2019-05-23T04:54:50.609Z,27.87
2019-05-23T04:57:21.981Z,27.70
2019-05-23T04:59:55.909Z,26.60
2019-05-23T05:02:30.099Z,26.57
2019-05-23T05:05:04.706Z,23.43
2019-05-23T05:07:34.783Z,23.67
2019-05-23T05:12:32.202Z,20.07
2019-05-23T05:15:08.369Z,16.63
2019-05-23T05:17:41.313Z,14.47
2019-05-23T05:20:14.548Z,14.27
2019-05-23T05:22:43.594Z,11.53
2019-05-23T05:25:15.403Z,12.17
2019-05-23T05:27:43.794Z,12.77
2019-05-23T05:30:18.286Z,13.10
2019-05-23T05:32:50.910Z,14.30
2019-05-23T05:35:22.825Z,11.77
2019-05-23T05:37:52.746Z,11.23
2019-05-23T05:40:21.133Z,11.90
2019-05-23T05:42:51.450Z,13.20
2019-05-23T05:45:21.453Z,13.07
2019-05-23T05:47:54.309Z,12.40
2019-05-23T05:50:24.387Z,11.23
2019-05-23T05:52:55.244Z,12.63
2019-05-23T05:55:25.275Z,11.43
2019-05-23T05:57:53.991Z,10.07
2019-05-23T06:00:29.647Z,13.18
2019-05-23T06:03:04.993Z,10.58
2019-05-23T06:05:52.658Z,11.57
2019-05-23T06:08:23.352Z,10.32
2019-05-23T06:10:53.536Z,11.55
2019-05-23T06:13:23.469Z,10.65
2019-05-23T06:15:54.797Z,14.30
2019-05-23T06:18:23.191Z,11.25
2019-05-23T06:20:51.651Z,13.30
2019-05-23T06:23:21.586Z,10.53
2019-05-23T06:25:51.514Z,12.13
2019-05-23T06:28:22.743Z,11.93
2019-05-23T06:30:54.260Z,12.63
2019-05-23T06:33:28.440Z,13.93
2019-05-23T06:35:57.091Z,14.20
2019-05-23T06:38:30.116Z,12.37
2019-05-23T06:41:01.678Z,12.95
2019-05-23T06:43:37.598Z,13.40
2019-05-23T06:46:07.910Z,15.08
2019-05-23T06:48:44.775Z,12.85
2019-05-23T06:51:13.004Z,15.58
2019-05-23T06:53:42.542Z,14.87
2019-05-23T06:56:15.978Z,13.65
2019-05-23T06:58:50.137Z,13.72
2019-05-23T07:01:18.597Z,14.75
2019-05-23T07:03:49.534Z,14.83
2019-05-23T07:06:21.005Z,11.33
2019-05-23T07:08:52.579Z,12.45
2019-05-23T07:11:24.733Z,16.52
2019-05-23T07:13:54.753Z,13.93
2019-05-23T07:16:23.229Z,14.10
2019-05-23T07:18:51.763Z,12.93
2019-05-23T07:21:21.971Z,13.60
2019-05-23T07:23:51.982Z,14.50
2019-05-23T07:26:28.124Z,16.30
2019-05-23T07:29:01.010Z,14.25
2019-05-23T07:31:31.325Z,11.48
2019-05-23T07:34:05.279Z,12.70
2019-05-23T07:36:37.921Z,11.25
2019-05-23T07:39:11.840Z,12.88
2019-05-23T07:41:51.511Z,14.70
2019-05-23T07:44:23.405Z,13.75
2019-05-23T07:46:52.046Z,13.68
2019-05-23T07:49:20.473Z,15.45
2019-05-23T07:51:49.123Z,15.35
2019-05-23T07:54:24.557Z,14.80
2019-05-23T07:56:53.662Z,14.47
2019-05-23T07:59:23.983Z,16.80
2019-05-23T08:01:59.870Z,17.85
2019-05-23T08:04:37.161Z,14.53
2019-05-23T08:07:13.287Z,16.57
2019-05-23T08:09:41.930Z,18.42
2019-05-23T08:12:13.239Z,20.08
2019-05-23T08:14:41.889Z,18.30
2019-05-23T08:17:15.996Z,19.00
2019-05-23T08:19:50.635Z,17.48
2019-05-23T08:22:20.208Z,19.92
2019-05-23T08:24:55.996Z,17.02
2019-05-23T08:27:27.441Z,16.73
2019-05-23T08:29:57.545Z,16.07
2019-05-23T08:32:26.010Z,18.50
2019-05-23T08:34:58.857Z,16.82
2019-05-23T08:37:28.975Z,16.93
2019-05-23T08:39:57.390Z,16.35
2019-05-23T08:42:27.505Z,16.40
2019-05-23T08:44:58.382Z,16.32
2019-05-23T08:47:27.118Z,18.65
2019-05-23T08:49:55.574Z,18.48
2019-05-23T08:52:26.442Z,17.87
2019-05-23T08:54:57.914Z,19.60
2019-05-23T08:57:31.066Z,17.17
2019-05-23T09:00:06.437Z,19.12
2019-05-23T09:02:42.495Z,17.25
2019-05-23T09:05:15.208Z,18.77
2019-05-23T09:07:43.832Z,16.37
2019-05-23T09:10:14.017Z,22.00
2019-05-23T09:12:45.918Z,18.52
2019-05-23T09:15:21.636Z,16.87
2019-05-23T09:17:54.497Z,16.82
2019-05-23T09:20:24.591Z,18.40
2019-05-23T09:22:58.926Z,16.80
2019-05-23T09:25:27.635Z,17.05
2019-05-23T09:27:58.167Z,15.53
2019-05-23T09:30:28.278Z,20.60
2019-05-23T09:32:58.341Z,15.18
2019-05-23T09:35:28.506Z,17.05
2019-05-23T09:38:04.173Z,15.85
2019-05-23T09:40:34.289Z,15.53
2019-05-23T09:43:04.277Z,15.03
2019-05-23T09:45:35.835Z,16.20
2019-05-23T09:48:15.663Z,15.58
2019-05-23T09:50:47.142Z,13.48
2019-05-23T09:53:17.419Z,12.05
2019-05-23T09:55:47.457Z,14.20
2019-05-23T09:58:15.859Z,13.48
2019-05-23T10:00:48.961Z,12.73
2019-05-23T10:03:17.509Z,11.83
2019-05-23T10:05:47.619Z,12.58
2019-05-23T10:08:16.329Z,9.45
2019-05-23T10:10:46.530Z,9.15
2019-05-23T10:13:16.556Z,11.60
2019-05-23T10:16:03.711Z,11.90
2019-05-23T10:18:33.954Z,11.50
2019-05-23T10:21:04.058Z,9.15
2019-05-23T10:23:34.282Z,9.83
2019-05-23T10:26:04.526Z,13.80
2019-05-23T10:28:32.993Z,10.88
2019-05-23T10:31:04.498Z,11.00
2019-05-23T10:33:37.177Z,11.80
2019-05-23T10:36:07.191Z,14.30
2019-05-23T10:38:37.540Z,12.43
2019-05-23T10:41:09.171Z,10.68
2019-05-23T10:43:37.590Z,9.75
2019-05-23T10:46:08.863Z,14.38
2019-05-23T10:48:41.673Z,14.55
2019-05-23T10:51:11.775Z,10.80
2019-05-23T10:53:43.169Z,14.15
2019-05-23T10:56:11.989Z,14.30
2019-05-23T10:58:51.873Z,10.80
2019-05-23T11:01:28.000Z,14.18
2019-05-23T11:03:56.455Z,15.23
2019-05-23T11:06:25.898Z,15.10
2019-05-23T11:08:56.285Z,14.90
2019-05-23T11:11:29.258Z,10.08
2019-05-23T11:13:59.429Z,15.80
2019-05-23T11:16:29.819Z,10.75
2019-05-23T11:19:00.034Z,14.38
2019-05-23T11:21:30.448Z,12.55
2019-05-23T11:24:02.337Z,15.23
2019-05-23T11:26:33.764Z,14.60
2019-05-23T11:29:07.903Z,12.43
2019-05-23T11:31:39.144Z,15.23
2019-05-23T11:34:09.440Z,13.00
2019-05-23T11:36:43.808Z,17.95
2019-05-23T11:39:13.849Z,13.95
2019-05-23T11:41:42.701Z,13.22
2019-05-23T11:44:12.727Z,15.00
2019-05-23T11:46:43.086Z,11.35
2019-05-23T11:49:18.190Z,14.35
2019-05-23T11:51:46.734Z,12.85
2019-05-23T11:54:25.690Z,13.55
2019-05-23T11:56:57.250Z,16.05
2019-05-23T11:59:28.835Z,13.05
2019-05-23T12:01:58.865Z,10.50
2019-05-23T12:04:31.558Z,14.83
2019-05-23T12:07:06.099Z,11.05
2019-05-23T12:09:37.347Z,16.87
2019-05-23T12:12:07.291Z,15.38
2019-05-23T12:14:37.379Z,15.85
2019-05-23T12:17:06.255Z,14.28
2019-05-23T12:19:36.402Z,12.30
2019-05-23T12:22:06.600Z,11.00
2019-05-23T12:24:37.898Z,15.10
2019-05-23T12:27:09.091Z,9.43
2019-05-23T12:29:39.435Z,14.13
2019-05-23T12:32:13.948Z,13.13
2019-05-23T12:35:08.052Z,11.05
2019-05-23T12:37:21.056Z,10.95
2019-05-23T12:39:57.421Z,11.45
2019-05-23T12:42:25.862Z,11.75
2019-05-23T12:44:57.470Z,10.25
2019-05-23T12:47:27.501Z,10.95
2019-05-23T12:50:03.584Z,9.65
2019-05-23T12:52:34.919Z,9.03
2019-05-23T12:55:05.111Z,11.12
2019-05-23T12:57:33.571Z,9.68
2019-05-23T13:00:04.854Z,10.90
2019-05-23T13:02:33.373Z,13.53
2019-05-23T13:05:09.699Z,10.82
2019-05-23T13:07:38.190Z,10.82
2019-05-23T13:10:08.537Z,15.38
2019-05-23T13:12:40.169Z,11.53
2019-05-23T13:15:12.820Z,10.65
2019-05-23T13:17:45.815Z,12.45
2019-05-23T13:20:17.255Z,10.30
2019-05-23T13:22:45.713Z,8.95
2019-05-23T13:25:17.382Z,8.50
2019-05-23T13:27:45.787Z,9.55
2019-05-23T13:30:14.393Z,7.65
2019-05-23T13:32:45.577Z,10.28
2019-05-23T13:35:18.973Z,10.00
2019-05-23T13:37:53.846Z,10.50
2019-05-23T13:40:21.821Z,9.50
2019-05-23T13:42:50.222Z,10.08
2019-05-23T13:45:20.910Z,9.53
2019-05-23T13:47:49.298Z,8.80
2019-05-23T13:50:18.963Z,10.15
2019-05-23T13:52:53.026Z,10.00
2019-05-23T13:55:21.425Z,8.65
2019-05-23T13:57:49.858Z,12.30
2019-05-23T14:00:22.588Z,8.63
2019-05-23T14:02:57.278Z,10.08
2019-05-23T14:05:27.305Z,11.95
2019-05-23T14:08:12.532Z,10.10
2019-05-23T14:10:31.981Z,7.70
2019-05-23T14:13:07.465Z,9.38
2019-05-23T14:15:40.361Z,9.28
2019-05-23T14:18:10.511Z,7.72
2019-05-23T14:20:42.153Z,8.80
2019-05-23T14:23:12.346Z,8.35
2019-05-23T14:25:48.470Z,7.70
2019-05-23T14:28:22.349Z,6.83
2019-05-23T14:30:56.549Z,8.30
2019-05-23T14:33:26.589Z,9.05
2019-05-23T14:36:01.042Z,8.65
2019-05-23T14:38:35.290Z,10.55
2019-05-23T14:41:05.464Z,7.03
2019-05-23T14:43:33.995Z,9.25
2019-05-23T14:46:09.826Z,6.92
2019-05-23T14:48:56.890Z,7.47
2019-05-23T14:51:29.390Z,7.65
2019-05-23T14:54:06.847Z,8.35
2019-05-23T14:56:41.520Z,8.78
2019-05-23T14:59:11.462Z,8.15
2019-05-23T15:01:43.111Z,8.65
2019-05-23T15:04:15.735Z,8.75
2019-05-23T15:06:44.602Z,8.78
2019-05-23T15:09:12.986Z,8.90
2019-05-23T15:11:44.440Z,8.38
2019-05-23T15:14:15.647Z,7.87
2019-05-23T15:16:45.143Z,9.68
2019-05-23T15:19:38.349Z,7.40
2019-05-23T15:21:46.820Z,10.82
2019-05-23T15:24:18.095Z,8.25
2019-05-23T15:26:46.706Z,9.23
2019-05-23T15:29:18.039Z,8.83
2019-05-23T15:32:00.916Z,7.58
2019-05-23T15:34:19.085Z,7.08
2019-05-23T15:36:51.721Z,7.50
2019-05-23T15:39:24.737Z,7.12
2019-05-23T15:41:56.196Z,9.73
2019-05-23T15:44:29.580Z,9.38
2019-05-23T15:47:00.451Z,7.90
2019-05-23T15:49:30.910Z,10.55
2019-05-23T15:52:02.229Z,11.93
2019-05-23T15:54:41.622Z,9.95
2019-05-23T15:57:14.706Z,9.93
2019-05-23T15:59:47.510Z,7.35
2019-05-23T16:02:20.196Z,9.75
2019-05-23T16:04:52.968Z,7.85
2019-05-23T16:07:22.010Z,6.65
2019-05-23T16:09:50.441Z,8.23
2019-05-23T16:12:20.673Z,8.73
2019-05-23T16:14:49.386Z,8.50
2019-05-23T16:17:17.765Z,8.83
2019-05-23T16:19:46.472Z,8.15
2019-05-23T16:22:15.238Z,8.53
2019-05-23T16:24:43.695Z,7.92
2019-05-23T16:27:14.657Z,7.28
2019-05-23T16:29:45.965Z,7.65
2019-05-23T16:32:17.085Z,11.30
2019-05-23T16:34:48.399Z,8.28
2019-05-23T16:37:16.924Z,6.00
2019-05-23T16:39:51.192Z,8.95
2019-05-23T16:42:21.284Z,9.93
2019-05-23T16:44:52.460Z,6.72
2019-05-23T16:47:22.624Z,7.80
2019-05-23T16:49:55.250Z,7.00
2019-05-23T16:52:26.497Z,7.28
2019-05-23T16:54:56.607Z,7.60
2019-05-23T16:57:41.698Z,7.53
2019-05-23T17:00:30.429Z,7.22
2019-05-23T17:03:18.263Z,7.00
2019-05-23T17:06:07.402Z,7.28
2019-05-23T17:08:59.967Z,9.08
2019-05-23T17:11:34.282Z,9.83
2019-05-23T17:14:14.594Z,10.03
2019-05-23T17:16:53.823Z,8.20
2019-05-23T17:19:40.251Z,5.58
2019-05-23T17:22:13.417Z,6.10
2019-05-23T17:25:00.064Z,6.58
2019-05-23T17:27:32.915Z,8.78
2019-05-23T17:30:02.962Z,9.55
2019-05-23T17:32:32.984Z,7.72
2019-05-23T17:35:03.018Z,7.87
2019-05-23T17:37:33.049Z,7.87
2019-05-23T17:40:23.693Z,8.88
2019-05-23T17:42:38.379Z,13.45
2019-05-23T17:45:08.377Z,9.43
2019-05-23T17:47:39.742Z,10.00
2019-05-23T17:50:09.895Z,9.75
2019-05-23T17:52:38.354Z,13.68
2019-05-23T17:55:09.146Z,12.10
2019-05-23T17:57:39.193Z,14.60
2019-05-23T18:00:12.294Z,8.48
2019-05-23T18:02:44.040Z,7.62
2019-05-23T18:05:14.350Z,9.28
2019-05-23T18:07:44.286Z,8.68
2019-05-23T18:10:18.868Z,7.83
2019-05-23T18:12:48.853Z,8.50
2019-05-23T18:15:17.246Z,7.75
2019-05-23T18:17:47.289Z,8.25
2019-05-23T18:20:17.365Z,8.73
2019-05-23T18:22:48.157Z,8.87
2019-05-23T18:25:23.249Z,7.90
2019-05-23T18:27:51.965Z,10.32
2019-05-23T18:30:33.984Z,7.17
2019-05-23T18:33:06.511Z,7.45
2019-05-23T18:35:40.432Z,8.23
2019-05-23T18:38:10.661Z,6.60
2019-05-23T18:40:40.699Z,7.03
2019-05-23T18:43:09.127Z,7.00
2019-05-23T18:45:39.166Z,10.10
2019-05-23T18:48:07.613Z,8.37
2019-05-23T18:50:36.776Z,7.40
2019-05-23T18:53:07.121Z,8.27
2019-05-23T18:55:39.868Z,8.97
2019-05-23T18:58:10.153Z,7.67
2019-05-23T19:00:58.253Z,7.40
2019-05-23T19:03:37.162Z,7.67
2019-05-23T19:06:08.529Z,6.23
2019-05-23T19:08:36.996Z,7.60
2019-05-23T19:11:20.288Z,9.03
2019-05-23T19:13:37.442Z,7.20
2019-05-23T19:16:09.086Z,8.03
2019-05-23T19:18:41.875Z,8.67
2019-05-23T19:21:13.447Z,9.17
2019-05-23T19:23:43.862Z,10.83
2019-05-23T19:26:12.391Z,11.00
2019-05-23T19:28:42.533Z,10.97
2019-05-23T19:31:14.169Z,10.20
2019-05-23T19:33:54.520Z,12.67
2019-05-23T19:36:24.620Z,9.27
2019-05-23T19:38:54.966Z,9.87
2019-05-23T19:41:36.001Z,9.30
2019-05-23T19:43:55.376Z,10.33
2019-05-23T19:46:27.007Z,10.50
2019-05-23T19:48:58.703Z,13.80
2019-05-23T19:51:27.402Z,11.53
2019-05-23T19:53:57.359Z,14.40
2019-05-23T19:56:30.298Z,15.70
2019-05-23T19:58:58.685Z,18.87
2019-05-23T20:01:32.410Z,13.30
2019-05-23T20:04:01.115Z,33.27
2019-05-23T20:06:31.030Z,42.83
2019-05-23T20:09:01.062Z,18.10
2019-05-23T20:11:32.546Z,12.57
2019-05-23T20:14:12.437Z,16.87
2019-05-23T20:16:40.989Z,16.20
2019-05-23T20:19:12.640Z,17.13
2019-05-23T20:21:41.321Z,16.23
2019-05-23T20:24:13.799Z,17.20
2019-05-23T20:26:40.080Z,13.50
2019-05-23T20:29:08.779Z,15.03
2019-05-23T20:31:39.054Z,13.27
2019-05-23T20:34:11.096Z,13.20
2019-05-23T20:36:39.555Z,16.30
2019-05-23T20:39:12.293Z,14.23
2019-05-23T20:41:42.389Z,12.63
2019-05-23T20:44:10.940Z,12.93
2019-05-23T20:46:39.586Z,12.50
2019-05-23T20:49:10.438Z,12.10
2019-05-23T20:51:40.510Z,12.77
2019-05-23T20:54:10.794Z,16.70
2019-05-23T20:56:39.271Z,12.57
2019-05-23T20:59:10.890Z,13.67
2019-05-23T21:01:42.562Z,12.43
2019-05-23T21:04:13.908Z,13.67
2019-05-23T21:06:43.918Z,17.30
2019-05-23T21:09:15.729Z,13.97
2019-05-23T21:11:42.850Z,14.10
2019-05-23T21:14:16.633Z,20.83
2019-05-23T21:16:48.078Z,19.17
2019-05-23T21:19:18.015Z,19.10
2019-05-23T21:21:46.485Z,18.83
2019-05-23T21:24:15.129Z,20.53
2019-05-23T21:26:43.525Z,19.67
2019-05-23T21:29:11.998Z,26.60
2019-05-23T21:31:43.367Z,22.40
2019-05-23T21:34:14.578Z,21.67
2019-05-23T21:36:45.875Z,21.40
2019-05-23T21:39:15.933Z,22.53
2019-05-23T21:41:45.371Z,23.80
2019-05-23T21:44:13.804Z,20.87
2019-05-23T21:46:44.943Z,26.87
2019-05-23T21:49:15.081Z,22.67
2019-05-23T21:51:45.093Z,19.70
2019-05-23T21:54:20.290Z,20.17
2019-05-23T21:56:48.692Z,19.80
2019-05-23T21:59:20.064Z,18.23
2019-05-23T22:01:52.789Z,22.30
2019-05-23T22:04:29.447Z,22.90
2019-05-23T22:07:01.348Z,17.20
2019-05-23T22:09:31.533Z,15.43
2019-05-23T22:12:00.745Z,18.37
2019-05-23T22:14:33.826Z,18.23
2019-05-23T22:17:06.790Z,16.00
2019-05-23T22:19:36.809Z,14.20
2019-05-23T22:22:08.339Z,16.07
2019-05-23T22:24:36.727Z,19.73
2019-05-23T22:27:06.879Z,17.60
2019-05-23T22:29:36.241Z,16.10
2019-05-23T22:32:06.261Z,16.00
2019-05-23T22:34:36.370Z,16.50
2019-05-23T22:37:19.472Z,17.93
2019-05-23T22:39:48.198Z,15.67
2019-05-23T22:42:18.314Z,19.73
2019-05-23T22:44:46.724Z,15.63
2019-05-23T22:47:15.430Z,17.13
2019-05-23T22:49:46.491Z,16.73
2019-05-23T22:52:14.880Z,15.60
2019-05-23T22:54:43.354Z,18.47
2019-05-23T22:57:13.661Z,17.60
2019-05-23T22:59:42.290Z,17.93
2019-05-23T23:02:16.209Z,18.60
2019-05-23T23:04:48.859Z,17.00
2019-05-23T23:07:18.946Z,15.33
2019-05-23T23:09:52.112Z,15.60
2019-05-23T23:12:22.394Z,14.87
2019-05-23T23:14:53.928Z,16.63
2019-05-23T23:17:23.976Z,17.27
2019-05-23T23:19:57.037Z,19.57
2019-05-23T23:22:27.931Z,19.10
2019-05-23T23:24:57.905Z,23.80
2019-05-23T23:27:33.289Z,25.93
2019-05-23T23:30:10.067Z,27.10
2019-05-23T23:32:38.495Z,24.67
2019-05-23T23:35:09.799Z,22.73
2019-05-23T23:37:38.430Z,23.13
2019-05-23T23:40:11.745Z,25.50
2019-05-23T23:42:42.459Z,23.43
2019-05-23T23:45:30.640Z,23.93
2019-05-23T23:48:18.029Z,22.27
2019-05-23T23:51:04.515Z,22.10
2019-05-23T23:53:53.573Z,26.73
2019-05-23T23:56:42.678Z,21.90
2019-05-23T23:59:10.449Z,27.97
